sensor_id;sensor_type;location;lat;lon;timestamp;pressure;altitude;pressure_sealevel;temperature;humidity
46836;BME280;32573;51.290;6.926;2022-08-21T00:01:52;100321.00;;;18.26;100.00
46836;BME280;32573;51.290;6.926;2022-08-21T00:04:20;100323.63;;;18.24;100.00
46836;BME280;32573;51.290;6.926;2022-08-21T00:06:55;100314.81;;;18.22;100.00
46836;BME280;32573;51.290;6.926;2022-08-21T00:09:24;100314.81;;;18.22;100.00
46836;BME280;32573;51.290;6.926;2022-08-21T00:11:54;100312.16;;;18.21;100.00
46836;BME280;32573;51.290;6.926;2022-08-21T00:14:22;100311.28;;;18.20;100.00
46836;BME280;32573;51.290;6.926;2022-08-21T00:16:51;100306.88;;;18.18;100.00
46836;BME280;32573;51.290;6.926;2022-08-21T00:19:26;100305.09;;;18.17;100.00
46836;BME280;32573;51.290;6.926;2022-08-21T00:21:55;100299.81;;;18.15;100.00
46836;BME280;32573;51.290;6.926;2022-08-21T00:24:24;100296.28;;;18.13;100.00
46836;BME280;32573;51.290;6.926;2022-08-21T00:26:54;100292.75;;;18.13;100.00
46836;BME280;32573;51.290;6.926;2022-08-21T00:29:22;100283.91;;;18.10;100.00
46836;BME280;32573;51.290;6.926;2022-08-21T00:31:51;100286.53;;;18.09;100.00
46836;BME280;32573;51.290;6.926;2022-08-21T00:34:19;100288.31;;;18.08;100.00
46836;BME280;32573;51.290;6.926;2022-08-21T00:36:48;100281.25;;;18.06;100.00
46836;BME280;32573;51.290;6.926;2022-08-21T00:39:16;100273.28;;;18.04;100.00
46836;BME280;32573;51.290;6.926;2022-08-21T00:41:44;100281.28;;;18.03;100.00
46836;BME280;32573;51.290;6.926;2022-08-21T00:44:15;100271.56;;;18.00;100.00
46836;BME280;32573;51.290;6.926;2022-08-21T00:46:43;100277.75;;;17.98;100.00
46836;BME280;32573;51.290;6.926;2022-08-21T00:49:13;100277.72;;;17.96;100.00
46836;BME280;32573;51.290;6.926;2022-08-21T00:51:44;100280.38;;;17.92;100.00
46836;BME280;32573;51.290;6.926;2022-08-21T00:54:15;100278.59;;;17.89;100.00
46836;BME280;32573;51.290;6.926;2022-08-21T00:56:48;100278.63;;;17.86;100.00
46836;BME280;32573;51.290;6.926;2022-08-21T00:59:20;100291.84;;;17.84;100.00
46836;BME280;32573;51.290;6.926;2022-08-21T01:01:49;100283.91;;;17.83;100.00
46836;BME280;32573;51.290;6.926;2022-08-21T01:04:19;100289.19;;;17.81;100.00
46836;BME280;32573;51.290;6.926;2022-08-21T01:06:48;100276.81;;;17.79;100.00
46836;BME280;32573;51.290;6.926;2022-08-21T01:09:16;100284.78;;;17.77;100.00
46836;BME280;32573;51.290;6.926;2022-08-21T01:11:46;100281.25;;;17.75;100.00
46836;BME280;32573;51.290;6.926;2022-08-21T01:14:15;100286.50;;;17.72;100.00
46836;BME280;32573;51.290;6.926;2022-08-21T01:16:49;100281.22;;;17.69;100.00
46836;BME280;32573;51.290;6.926;2022-08-21T01:19:20;100279.44;;;17.66;100.00
46836;BME280;32573;51.290;6.926;2022-08-21T01:21:51;100286.50;;;17.64;100.00
46836;BME280;32573;51.290;6.926;2022-08-21T01:24:21;100284.72;;;17.62;100.00
46836;BME280;32573;51.290;6.926;2022-08-21T01:26:50;100287.41;;;17.57;100.00
46836;BME280;32573;51.290;6.926;2022-08-21T01:29:26;100293.59;;;17.55;100.00
46836;BME280;32573;51.290;6.926;2022-08-21T01:31:59;100295.31;;;17.51;100.00
46836;BME280;32573;51.290;6.926;2022-08-21T01:34:27;100290.03;;;17.48;100.00
46836;BME280;32573;51.290;6.926;2022-08-21T01:36:57;100286.50;;;17.46;100.00
46836;BME280;32573;51.290;6.926;2022-08-21T01:39:25;100280.31;;;17.41;100.00
46836;BME280;32573;51.290;6.926;2022-08-21T01:41:54;100287.34;;;17.39;100.00
46836;BME280;32573;51.290;6.926;2022-08-21T01:44:23;100283.84;;;17.35;100.00
46836;BME280;32573;51.290;6.926;2022-08-21T01:46:52;100276.78;;;17.33;100.00
46836;BME280;32573;51.290;6.926;2022-08-21T01:49:21;100278.50;;;17.29;100.00
46836;BME280;32573;51.290;6.926;2022-08-21T01:51:49;100277.63;;;17.27;100.00
46836;BME280;32573;51.290;6.926;2022-08-21T01:54:20;100272.31;;;17.24;100.00
46836;BME280;32573;51.290;6.926;2022-08-21T01:56:51;100277.63;;;17.21;100.00
46836;BME280;32573;51.290;6.926;2022-08-21T01:59:21;100277.63;;;17.18;100.00
46836;BME280;32573;51.290;6.926;2022-08-21T02:01:50;100276.69;;;17.14;100.00
46836;BME280;32573;51.290;6.926;2022-08-21T02:04:21;100273.16;;;17.12;100.00
46836;BME280;32573;51.290;6.926;2022-08-21T02:06:50;100271.41;;;17.08;100.00
46836;BME280;32573;51.290;6.926;2022-08-21T02:09:20;100271.41;;;17.05;100.00
46836;BME280;32573;51.290;6.926;2022-08-21T02:11:50;100275.78;;;17.01;100.00
46836;BME280;32573;51.290;6.926;2022-08-21T02:14:19;100277.53;;;16.99;100.00
46836;BME280;32573;51.290;6.926;2022-08-21T02:16:59;100275.78;;;16.95;100.00
46836;BME280;32573;51.290;6.926;2022-08-21T02:19:36;100274.00;;;16.91;100.00
46836;BME280;32573;51.290;6.926;2022-08-21T02:22:07;100268.69;;;16.88;100.00
46836;BME280;32573;51.290;6.926;2022-08-21T02:24:37;100269.56;;;16.84;100.00
46836;BME280;32573;51.290;6.926;2022-08-21T02:27:22;100270.44;;;16.80;100.00
46836;BME280;32573;51.290;6.926;2022-08-21T02:29:53;100265.97;;;16.76;100.00
46836;BME280;32573;51.290;6.926;2022-08-21T02:32:22;100268.59;;;16.74;100.00
46836;BME280;32573;51.290;6.926;2022-08-21T02:34:50;100262.41;;;16.69;100.00
46836;BME280;32573;51.290;6.926;2022-08-21T02:37:19;100262.41;;;16.66;100.00
46836;BME280;32573;51.290;6.926;2022-08-21T02:39:49;100261.50;;;16.63;100.00
46836;BME280;32573;51.290;6.926;2022-08-21T02:42:18;100260.59;;;16.59;100.00
46836;BME280;32573;51.290;6.926;2022-08-21T02:44:46;100271.16;;;16.56;100.00
46836;BME280;32573;51.290;6.926;2022-08-21T02:47:15;100270.25;;;16.52;100.00
46836;BME280;32573;51.290;6.926;2022-08-21T02:49:43;100271.13;;;16.48;100.00
46836;BME280;32573;51.290;6.926;2022-08-21T02:52:11;100280.78;;;16.43;100.00
46836;BME280;32573;51.290;6.926;2022-08-21T02:54:41;100271.94;;;16.38;100.00
46836;BME280;32573;51.290;6.926;2022-08-21T02:57:11;100271.00;;;16.31;100.00
46836;BME280;32573;51.290;6.926;2022-08-21T02:59:39;100278.91;;;16.30;100.00
46836;BME280;32573;51.290;6.926;2022-08-21T03:02:07;100277.13;;;16.27;100.00
46836;BME280;32573;51.290;6.926;2022-08-21T03:04:38;100273.59;;;16.24;100.00
46836;BME280;32573;51.290;6.926;2022-08-21T03:07:12;100274.47;;;16.21;100.00
46836;BME280;32573;51.290;6.926;2022-08-21T03:09:42;100268.31;;;16.17;100.00
46836;BME280;32573;51.290;6.926;2022-08-21T03:12:23;100266.53;;;16.15;100.00
46836;BME280;32573;51.290;6.926;2022-08-21T03:14:55;100264.72;;;16.12;100.00
46836;BME280;32573;51.290;6.926;2022-08-21T03:17:24;100253.25;;;16.09;100.00
46836;BME280;32573;51.290;6.926;2022-08-21T03:19:56;100264.69;;;16.06;100.00
46836;BME280;32573;51.290;6.926;2022-08-21T03:22:25;100263.78;;;16.04;100.00
46836;BME280;32573;51.290;6.926;2022-08-21T03:24:56;100263.78;;;16.01;100.00
46836;BME280;32573;51.290;6.926;2022-08-21T03:27:27;100263.75;;;16.00;100.00
46836;BME280;32573;51.290;6.926;2022-08-21T03:29:58;100264.59;;;15.97;100.00
46836;BME280;32573;51.290;6.926;2022-08-21T03:32:26;100264.59;;;15.94;100.00
46836;BME280;32573;51.290;6.926;2022-08-21T03:34:55;100269.84;;;15.91;100.00
46836;BME280;32573;51.290;6.926;2022-08-21T03:37:24;100261.91;;;15.88;100.00
46836;BME280;32573;51.290;6.926;2022-08-21T03:39:52;100261.88;;;15.85;100.00
46836;BME280;32573;51.290;6.926;2022-08-21T03:42:21;100267.13;;;15.82;100.00
46836;BME280;32573;51.290;6.926;2022-08-21T03:44:51;100268.00;;;15.81;100.00
46836;BME280;32573;51.290;6.926;2022-08-21T03:47:19;100260.06;;;15.79;100.00
46836;BME280;32573;51.290;6.926;2022-08-21T03:49:49;100262.72;;;15.78;100.00
46836;BME280;32573;51.290;6.926;2022-08-21T03:52:18;100258.28;;;15.77;100.00
46836;BME280;32573;51.290;6.926;2022-08-21T03:54:46;100258.31;;;15.75;100.00
46836;BME280;32573;51.290;6.926;2022-08-21T03:57:14;100257.38;;;15.74;100.00
46836;BME280;32573;51.290;6.926;2022-08-21T03:59:43;100260.03;;;15.74;100.00
46836;BME280;32573;51.290;6.926;2022-08-21T04:02:14;100270.59;;;15.74;100.00
46836;BME280;32573;51.290;6.926;2022-08-21T04:04:44;100263.53;;;15.72;100.00
46836;BME280;32573;51.290;6.926;2022-08-21T04:07:12;100272.34;;;15.71;100.00
46836;BME280;32573;51.290;6.926;2022-08-21T04:09:41;100266.19;;;15.70;100.00
46836;BME280;32573;51.290;6.926;2022-08-21T04:12:09;100275.81;;;15.70;100.00
46836;BME280;32573;51.290;6.926;2022-08-21T04:14:38;100278.44;;;15.68;100.00
46836;BME280;32573;51.290;6.926;2022-08-21T04:17:06;100279.28;;;15.67;100.00
46836;BME280;32573;51.290;6.926;2022-08-21T04:19:36;100276.66;;;15.67;100.00
46836;BME280;32573;51.290;6.926;2022-08-21T04:22:04;100283.69;;;15.65;100.00
46836;BME280;32573;51.290;6.926;2022-08-21T04:24:33;100273.09;;;15.64;100.00
46836;BME280;32573;51.290;6.926;2022-08-21T04:27:01;100277.50;;;15.63;100.00
46836;BME280;32573;51.290;6.926;2022-08-21T04:29:30;100273.09;;;15.62;100.00
46836;BME280;32573;51.290;6.926;2022-08-21T04:32:00;100281.88;;;15.61;100.00
46836;BME280;32573;51.290;6.926;2022-08-21T04:34:28;100281.88;;;15.61;100.00
46836;BME280;32573;51.290;6.926;2022-08-21T04:36:58;100275.69;;;15.59;100.00
46836;BME280;32573;51.290;6.926;2022-08-21T04:39:26;100278.34;;;15.59;100.00
46836;BME280;32573;51.290;6.926;2022-08-21T04:41:56;100292.38;;;15.57;100.00
46836;BME280;32573;51.290;6.926;2022-08-21T04:44:24;100294.16;;;15.56;100.00
46836;BME280;32573;51.290;6.926;2022-08-21T04:46:52;100292.41;;;15.55;100.00
46836;BME280;32573;51.290;6.926;2022-08-21T04:49:21;100299.41;;;15.53;100.00
46836;BME280;32573;51.290;6.926;2022-08-21T04:51:49;100299.38;;;15.51;100.00
46836;BME280;32573;51.290;6.926;2022-08-21T04:54:21;100297.59;;;15.49;100.00
46836;BME280;32573;51.290;6.926;2022-08-21T04:56:53;100299.31;;;15.47;100.00
46836;BME280;32573;51.290;6.926;2022-08-21T04:59:28;100299.31;;;15.44;100.00
46836;BME280;32573;51.290;6.926;2022-08-21T05:02:00;100302.81;;;15.43;100.00
46836;BME280;32573;51.290;6.926;2022-08-21T05:04:30;100296.63;;;15.41;100.00
46836;BME280;32573;51.290;6.926;2022-08-21T05:07:02;100297.50;;;15.40;100.00
46836;BME280;32573;51.290;6.926;2022-08-21T05:09:34;100296.63;;;15.38;100.00
46836;BME280;32573;51.290;6.926;2022-08-21T05:12:03;100301.88;;;15.36;100.00
46836;BME280;32573;51.290;6.926;2022-08-21T05:14:32;100300.97;;;15.36;100.00
46836;BME280;32573;51.290;6.926;2022-08-21T05:17:00;100306.25;;;15.36;100.00
46836;BME280;32573;51.290;6.926;2022-08-21T05:19:29;100308.00;;;15.34;100.00
46836;BME280;32573;51.290;6.926;2022-08-21T05:21:57;100308.00;;;15.34;100.00
46836;BME280;32573;51.290;6.926;2022-08-21T05:24:25;100308.00;;;15.34;100.00
46836;BME280;32573;51.290;6.926;2022-08-21T05:26:55;100309.75;;;15.33;100.00
46836;BME280;32573;51.290;6.926;2022-08-21T05:29:24;100308.88;;;15.34;100.00
46836;BME280;32573;51.290;6.926;2022-08-21T05:31:53;100304.47;;;15.35;100.00
46836;BME280;32573;51.290;6.926;2022-08-21T05:34:22;100311.53;;;15.36;100.00
46836;BME280;32573;51.290;6.926;2022-08-21T05:36:51;100313.28;;;15.37;100.00
46836;BME280;32573;51.290;6.926;2022-08-21T05:39:19;100306.28;;;15.39;100.00
46836;BME280;32573;51.290;6.926;2022-08-21T05:41:48;100309.81;;;15.41;100.00
46836;BME280;32573;51.290;6.926;2022-08-21T05:44:17;100309.84;;;15.44;100.00
46836;BME280;32573;51.290;6.926;2022-08-21T05:46:48;100323.94;;;15.46;100.00
46836;BME280;32573;51.290;6.926;2022-08-21T05:49:17;100318.69;;;15.49;100.00
46836;BME280;32573;51.290;6.926;2022-08-21T05:51:45;100323.13;;;15.51;100.00
46836;BME280;32573;51.290;6.926;2022-08-21T05:54:13;100320.50;;;15.54;100.00
46836;BME280;32573;51.290;6.926;2022-08-21T05:56:42;100313.50;;;15.57;100.00
46836;BME280;32573;51.290;6.926;2022-08-21T05:59:11;100320.59;;;15.62;100.00
46836;BME280;32573;51.290;6.926;2022-08-21T06:01:41;100318.00;;;15.65;100.00
46836;BME280;32573;51.290;6.926;2022-08-21T06:04:10;100314.50;;;15.68;100.00
46836;BME280;32573;51.290;6.926;2022-08-21T06:06:38;100311.94;;;15.72;100.00
46836;BME280;32573;51.290;6.926;2022-08-21T06:09:06;100309.31;;;15.77;100.00
46836;BME280;32573;51.290;6.926;2022-08-21T06:11:35;100310.25;;;15.81;100.00
46836;BME280;32573;51.290;6.926;2022-08-21T06:14:03;100304.09;;;15.85;100.00
46836;BME280;32573;51.290;6.926;2022-08-21T06:16:33;100307.66;;;15.90;100.00
46836;BME280;32573;51.290;6.926;2022-08-21T06:19:03;100297.16;;;15.94;100.00
46836;BME280;32573;51.290;6.926;2022-08-21T06:21:31;100300.72;;;16.00;100.00
46836;BME280;32573;51.290;6.926;2022-08-21T06:23:59;100303.41;;;16.04;100.00
46836;BME280;32573;51.290;6.926;2022-08-21T06:26:28;100299.03;;;16.09;100.00
46836;BME280;32573;51.290;6.926;2022-08-21T06:28:56;100298.19;;;16.13;100.00
46836;BME280;32573;51.290;6.926;2022-08-21T06:31:26;100300.88;;;16.18;100.00
46836;BME280;32573;51.290;6.926;2022-08-21T06:33:55;100296.50;;;16.23;100.00
46836;BME280;32573;51.290;6.926;2022-08-21T06:36:25;100301.81;;;16.28;100.00
46836;BME280;32573;51.290;6.926;2022-08-21T06:38:54;100303.59;;;16.32;100.00
46836;BME280;32573;51.290;6.926;2022-08-21T06:41:24;100310.69;;;16.36;100.00
46836;BME280;32573;51.290;6.926;2022-08-21T06:43:54;100310.69;;;16.42;100.00
46836;BME280;32573;51.290;6.926;2022-08-21T06:46:24;100306.31;;;16.47;100.00
46836;BME280;32573;51.290;6.926;2022-08-21T06:48:53;100307.22;;;16.49;100.00
46836;BME280;32573;51.290;6.926;2022-08-21T06:51:21;100301.09;;;16.53;100.00
46836;BME280;32573;51.290;6.926;2022-08-21T06:53:51;100302.00;;;16.58;100.00
46836;BME280;32573;51.290;6.926;2022-08-21T06:56:20;100304.69;;;16.63;100.00
46836;BME280;32573;51.290;6.926;2022-08-21T06:58:48;100307.34;;;16.68;100.00
46836;BME280;32573;51.290;6.926;2022-08-21T07:01:25;100307.34;;;16.72;100.00
46836;BME280;32573;51.290;6.926;2022-08-21T07:03:54;100310.91;;;16.76;100.00
46836;BME280;32573;51.290;6.926;2022-08-21T07:06:24;100314.50;;;16.81;100.00
46836;BME280;32573;51.290;6.926;2022-08-21T07:08:54;100311.88;;;16.86;100.00
46836;BME280;32573;51.290;6.926;2022-08-21T07:11:25;100308.34;;;16.90;100.00
46836;BME280;32573;51.290;6.926;2022-08-21T07:13:54;100310.13;;;16.94;100.00
46836;BME280;32573;51.290;6.926;2022-08-21T07:16:23;100307.53;;;16.98;100.00
46836;BME280;32573;51.290;6.926;2022-08-21T07:18:52;100311.03;;;17.02;100.00
46836;BME280;32573;51.290;6.926;2022-08-21T07:21:20;100310.22;;;17.08;100.00
46836;BME280;32573;51.290;6.926;2022-08-21T07:23:52;100304.94;;;17.14;100.00
46836;BME280;32573;51.290;6.926;2022-08-21T07:26:23;100312.88;;;17.18;100.00
46836;BME280;32573;51.290;6.926;2022-08-21T07:28:53;100311.16;;;17.25;100.00
46836;BME280;32573;51.290;6.926;2022-08-21T07:31:23;100312.03;;;17.32;100.00
46836;BME280;32573;51.290;6.926;2022-08-21T07:33:52;100316.47;;;17.37;100.00
46836;BME280;32573;51.290;6.926;2022-08-21T07:36:21;100309.41;;;17.44;100.00
46836;BME280;32573;51.290;6.926;2022-08-21T07:38:49;100312.97;;;17.51;100.00
46836;BME280;32573;51.290;6.926;2022-08-21T07:41:23;100310.34;;;17.55;100.00
46836;BME280;32573;51.290;6.926;2022-08-21T07:43:52;100309.47;;;17.61;100.00
46836;BME280;32573;51.290;6.926;2022-08-21T07:46:21;100304.16;;;17.67;100.00
46836;BME280;32573;51.290;6.926;2022-08-21T07:48:49;100312.13;;;17.73;100.00
46836;BME280;32573;51.290;6.926;2022-08-21T07:51:22;100303.31;;;17.77;100.00
46836;BME280;32573;51.290;6.926;2022-08-21T07:53:53;100303.31;;;17.82;100.00
46836;BME280;32573;51.290;6.926;2022-08-21T07:56:23;100302.47;;;17.87;100.00
46836;BME280;32573;51.290;6.926;2022-08-21T07:58:52;100310.38;;;17.92;100.00
46836;BME280;32573;51.290;6.926;2022-08-21T08:01:20;100305.97;;;17.99;100.00
46836;BME280;32573;51.290;6.926;2022-08-21T08:03:49;100309.50;;;18.04;100.00
46836;BME280;32573;51.290;6.926;2022-08-21T08:06:17;100301.56;;;18.10;100.00
46836;BME280;32573;51.290;6.926;2022-08-21T08:08:46;100297.16;;;18.15;100.00
46836;BME280;32573;51.290;6.926;2022-08-21T08:11:15;100293.59;;;18.19;100.00
46836;BME280;32573;51.290;6.926;2022-08-21T08:13:47;100295.38;;;18.23;100.00
46836;BME280;32573;51.290;6.926;2022-08-21T08:16:17;100291.84;;;18.27;100.00
46836;BME280;32573;51.290;6.926;2022-08-21T08:18:45;100293.59;;;18.31;100.00
46836;BME280;32573;51.290;6.926;2022-08-21T08:21:14;100295.38;;;18.37;100.00
46836;BME280;32573;51.290;6.926;2022-08-21T08:23:43;100297.13;;;18.43;100.00
46836;BME280;32573;51.290;6.926;2022-08-21T08:26:12;100293.56;;;18.50;100.00
46836;BME280;32573;51.290;6.926;2022-08-21T08:28:42;100293.53;;;18.56;100.00
46836;BME280;32573;51.290;6.926;2022-08-21T08:31:12;100294.38;;;18.64;100.00
46836;BME280;32573;51.290;6.926;2022-08-21T08:33:40;100287.31;;;18.69;100.00
46836;BME280;32573;51.290;6.926;2022-08-21T08:36:13;100282.91;;;18.76;100.00
46836;BME280;32573;51.290;6.926;2022-08-21T08:38:41;100284.63;;;18.82;100.00
46836;BME280;32573;51.290;6.926;2022-08-21T08:41:13;100284.63;;;18.88;100.00
46836;BME280;32573;51.290;6.926;2022-08-21T08:43:48;100294.34;;;18.95;100.00
46836;BME280;32573;51.290;6.926;2022-08-21T08:46:31;100291.63;;;19.04;100.00
46836;BME280;32573;51.290;6.926;2022-08-21T08:49:08;100293.34;;;19.11;100.00
46836;BME280;32573;51.290;6.926;2022-08-21T08:51:45;100292.44;;;19.20;100.00
46836;BME280;32573;51.290;6.926;2022-08-21T08:54:25;100288.88;;;19.27;100.00
46836;BME280;32573;51.290;6.926;2022-08-21T08:56:58;100280.84;;;19.35;100.00
46836;BME280;32573;51.290;6.926;2022-08-21T08:59:34;100283.44;;;19.46;100.00
46836;BME280;32573;51.290;6.926;2022-08-21T09:02:08;100282.47;;;19.54;100.00
46836;BME280;32573;51.290;6.926;2022-08-21T09:04:39;100269.13;;;19.64;100.00
46836;BME280;32573;51.290;6.926;2022-08-21T09:07:14;100266.47;;;19.73;100.00
46836;BME280;32573;51.290;6.926;2022-08-21T09:09:55;100271.72;;;19.79;100.00
46836;BME280;32573;51.290;6.926;2022-08-21T09:12:33;100263.69;;;19.85;100.00
46836;BME280;32573;51.290;6.926;2022-08-21T09:15:12;100261.88;;;19.90;100.00
46836;BME280;32573;51.290;6.926;2022-08-21T09:17:54;100273.34;;;19.97;100.00
46836;BME280;32573;51.290;6.926;2022-08-21T09:20:32;100269.75;;;20.01;100.00
46836;BME280;32573;51.290;6.926;2022-08-21T09:23:11;100274.16;;;20.03;100.00
46836;BME280;32573;51.290;6.926;2022-08-21T09:25:55;100264.38;;;20.09;100.00
46836;BME280;32573;51.290;6.926;2022-08-21T09:28:26;100261.66;;;20.13;100.00
46836;BME280;32573;51.290;6.926;2022-08-21T09:30:55;100258.06;;;20.19;100.00
46836;BME280;32573;51.290;6.926;2022-08-21T09:33:26;100257.16;;;20.23;100.00
46836;BME280;32573;51.290;6.926;2022-08-21T09:35:56;100262.38;;;20.31;100.00
46836;BME280;32573;51.290;6.926;2022-08-21T09:38:30;100255.19;;;20.40;100.00
46836;BME280;32573;51.290;6.926;2022-08-21T09:41:02;100259.56;;;20.46;100.00
46836;BME280;32573;51.290;6.926;2022-08-21T09:43:31;100264.78;;;20.54;100.00
46836;BME280;32573;51.290;6.926;2022-08-21T09:46:04;100255.00;;;20.62;100.00
46836;BME280;32573;51.290;6.926;2022-08-21T09:48:41;100254.00;;;20.71;100.00
46836;BME280;32573;51.290;6.926;2022-08-21T09:51:13;100260.06;;;20.80;100.00
46836;BME280;32573;51.290;6.926;2022-08-21T09:53:45;100256.50;;;20.84;100.00
46836;BME280;32573;51.290;6.926;2022-08-21T09:56:21;100251.06;;;20.90;100.00
46836;BME280;32573;51.290;6.926;2022-08-21T09:59:18;100251.84;;;20.99;100.00
46836;BME280;32573;51.290;6.926;2022-08-21T10:01:50;100246.47;;;21.05;100.00
46836;BME280;32573;51.290;6.926;2022-08-21T10:04:23;100236.56;;;21.13;100.00
46836;BME280;32573;51.290;6.926;2022-08-21T10:06:51;100250.66;;;21.21;100.00
46836;BME280;32573;51.290;6.926;2022-08-21T10:09:24;100241.63;;;21.31;100.00
46836;BME280;32573;51.290;6.926;2022-08-21T10:11:58;100241.56;;;21.39;100.00
46836;BME280;32573;51.290;6.926;2022-08-21T10:14:47;100247.69;;;21.44;100.00
46836;BME280;32573;51.290;6.926;2022-08-21T10:17:23;100245.00;;;21.46;100.00
46836;BME280;32573;51.290;6.926;2022-08-21T10:20:02;100246.78;;;21.47;100.00
46836;BME280;32573;51.290;6.926;2022-08-21T10:22:38;100241.47;;;21.44;100.00
46836;BME280;32573;51.290;6.926;2022-08-21T10:25:14;100239.66;;;21.46;100.00
46836;BME280;32573;51.290;6.926;2022-08-21T10:27:53;100239.53;;;21.53;100.00
46836;BME280;32573;51.290;6.926;2022-08-21T10:30:34;100230.53;;;21.62;100.00
46836;BME280;32573;51.290;6.926;2022-08-21T10:33:14;100230.38;;;21.71;100.00
46836;BME280;32573;51.290;6.926;2022-08-21T10:35:53;100230.22;;;21.81;100.00
46836;BME280;32573;51.290;6.926;2022-08-21T10:38:55;100228.41;;;21.83;100.00
46836;BME280;32573;51.290;6.926;2022-08-21T10:42:02;100224.81;;;21.84;100.00
46836;BME280;32573;51.290;6.926;2022-08-21T10:44:39;100223.81;;;21.91;100.00
46836;BME280;32573;51.290;6.926;2022-08-21T10:47:18;100235.25;;;21.99;100.00
46836;BME280;32573;51.290;6.926;2022-08-21T10:49:59;100225.31;;;22.07;100.00
46836;BME280;32573;51.290;6.926;2022-08-21T10:52:43;100227.78;;;22.16;100.00
46836;BME280;32573;51.290;6.926;2022-08-21T10:55:16;100227.72;;;22.23;100.00
46836;BME280;32573;51.290;6.926;2022-08-21T10:57:49;100233.84;;;22.29;100.00
46836;BME280;32573;51.290;6.926;2022-08-21T11:00:20;100224.75;;;22.39;100.00
46836;BME280;32573;51.290;6.926;2022-08-21T11:02:53;100222.78;;;22.49;100.00
46836;BME280;32573;51.290;6.926;2022-08-21T11:05:30;100221.84;;;22.50;100.00
46836;BME280;32573;51.290;6.926;2022-08-21T11:08:03;100221.72;;;22.56;100.00
46836;BME280;32573;51.290;6.926;2022-08-21T11:10:39;100225.13;;;22.65;100.00
46836;BME280;32573;51.290;6.926;2022-08-21T11:13:29;100221.44;;;22.70;100.00
46836;BME280;32573;51.290;6.926;2022-08-21T11:16:05;100225.06;;;22.68;100.00
46836;BME280;32573;51.290;6.926;2022-08-21T11:18:39;100227.69;;;22.69;100.00
46836;BME280;32573;51.290;6.926;2022-08-21T11:21:19;100217.75;;;22.76;100.00
46836;BME280;32573;51.290;6.926;2022-08-21T11:23:59;100219.38;;;22.85;100.00
46836;BME280;32573;51.290;6.926;2022-08-21T11:26:43;100221.75;;;22.97;100.00
46836;BME280;32573;51.290;6.926;2022-08-21T11:29:21;100220.63;;;23.09;100.00
46836;BME280;32573;51.290;6.926;2022-08-21T11:31:55;100218.69;;;23.17;100.00
46836;BME280;32573;51.290;6.926;2022-08-21T11:34:38;100223.75;;;23.29;100.00
46836;BME280;32573;51.290;6.926;2022-08-21T11:37:16;100228.06;;;23.35;100.00
46836;BME280;32573;51.290;6.926;2022-08-21T11:39:57;100212.69;;;23.44;100.00
46836;BME280;32573;51.290;6.926;2022-08-21T11:42:35;100214.13;;;23.58;100.00
46836;BME280;32573;51.290;6.926;2022-08-21T11:45:17;100204.09;;;23.67;100.00
46836;BME280;32573;51.290;6.926;2022-08-21T11:47:57;100204.88;;;23.71;100.00
46836;BME280;32573;51.290;6.926;2022-08-21T11:50:30;100215.47;;;23.77;100.00
46836;BME280;32573;51.290;6.926;2022-08-21T11:53:05;100210.75;;;23.87;100.00
46836;BME280;32573;51.290;6.926;2022-08-21T11:55:41;100214.75;;;24.03;100.00
46836;BME280;32573;51.290;6.926;2022-08-21T11:58:19;100207.47;;;24.10;100.00
46836;BME280;32573;51.290;6.926;2022-08-21T12:00:51;100207.22;;;24.19;100.00
46836;BME280;32573;51.290;6.926;2022-08-21T12:03:25;100208.75;;;24.28;100.00
46836;BME280;32573;51.290;6.926;2022-08-21T12:05:56;100211.28;;;24.34;100.00
46836;BME280;32573;51.290;6.926;2022-08-21T12:08:28;100203.09;;;24.39;100.00
46836;BME280;32573;51.290;6.926;2022-08-21T12:11:04;100211.78;;;24.48;100.00
46836;BME280;32573;51.290;6.926;2022-08-21T12:13:35;100215.16;;;24.55;100.00
46836;BME280;32573;51.290;6.926;2022-08-21T12:16:11;100207.78;;;24.63;100.00
46836;BME280;32573;51.290;6.926;2022-08-21T12:18:41;100193.38;;;24.67;100.00
46836;BME280;32573;51.290;6.926;2022-08-21T12:21:20;100200.22;;;24.78;100.00
46836;BME280;32573;51.290;6.926;2022-08-21T12:24:00;100194.72;;;24.82;100.00
46836;BME280;32573;51.290;6.926;2022-08-21T12:26:32;100198.00;;;24.92;100.00
46836;BME280;32573;51.290;6.926;2022-08-21T12:29:04;100200.44;;;25.00;100.00
46836;BME280;32573;51.290;6.926;2022-08-21T12:31:34;100203.84;;;25.05;100.00
46836;BME280;32573;51.290;6.926;2022-08-21T12:34:09;100191.19;;;25.10;100.00
46836;BME280;32573;51.290;6.926;2022-08-21T12:36:45;100182.94;;;25.17;100.00
46836;BME280;32573;51.290;6.926;2022-08-21T12:39:21;100182.44;;;25.33;100.00
46836;BME280;32573;51.290;6.926;2022-08-21T12:41:57;100188.28;;;25.46;100.00
46836;BME280;32573;51.290;6.926;2022-08-21T12:44:35;100187.78;;;25.61;100.00
46836;BME280;32573;51.290;6.926;2022-08-21T12:47:14;100206.19;;;25.72;100.00
46836;BME280;32573;51.290;6.926;2022-08-21T12:49:52;100188.81;;;25.83;100.00
46836;BME280;32573;51.290;6.926;2022-08-21T12:52:24;100192.88;;;25.95;100.00
46836;BME280;32573;51.290;6.926;2022-08-21T12:54:56;100196.13;;;26.05;100.00
46836;BME280;32573;51.290;6.926;2022-08-21T12:57:27;100188.66;;;26.13;100.00
46836;BME280;32573;51.290;6.926;2022-08-21T13:00:00;100193.22;;;26.11;100.00
46836;BME280;32573;51.290;6.926;2022-08-21T13:02:30;100187.06;;;26.08;100.00
46836;BME280;32573;51.290;6.926;2022-08-21T13:05:03;100190.91;;;26.00;100.00